createdAt,value
2023-03-27T00:01:27.048Z,8.80
2023-03-27T00:03:55.723Z,9.25
2023-03-27T00:06:25.235Z,8.10
2023-03-27T00:08:53.707Z,8.55
2023-03-27T00:11:22.508Z,9.20
2023-03-27T00:13:55.871Z,7.97
2023-03-27T00:16:26.954Z,7.75
2023-03-27T00:18:56.054Z,9.10
2023-03-27T00:21:24.598Z,9.52
2023-03-27T00:23:52.819Z,10.95
2023-03-27T00:26:22.178Z,10.45
2023-03-27T00:28:50.729Z,11.95
2023-03-27T00:31:18.153Z,9.73
2023-03-27T00:33:46.096Z,10.25
2023-03-27T00:36:15.339Z,7.57
2023-03-27T00:38:43.937Z,7.60
2023-03-27T00:41:11.390Z,7.97
2023-03-27T00:43:44.060Z,9.60
2023-03-27T00:46:38.781Z,9.25
2023-03-27T00:49:11.867Z,7.55
2023-03-27T00:51:42.591Z,8.60
2023-03-27T00:54:12.947Z,9.57
2023-03-27T00:56:40.272Z,8.80
2023-03-27T00:59:16.222Z,10.68
2023-03-27T01:01:46.191Z,10.85
2023-03-27T01:04:14.142Z,11.30
2023-03-27T01:06:43.499Z,12.90
2023-03-27T01:09:11.181Z,14.35
2023-03-27T01:12:35.931Z,15.57
2023-03-27T01:15:42.253Z,15.45
2023-03-27T01:18:31.695Z,15.00
2023-03-27T01:21:14.206Z,14.18
2023-03-27T01:24:16.507Z,15.43
2023-03-27T01:27:19.374Z,14.63
2023-03-27T01:30:09.919Z,14.00
2023-03-27T01:33:16.281Z,14.38
2023-03-27T01:36:26.075Z,12.27
2023-03-27T01:39:28.498Z,13.35
2023-03-27T01:42:31.560Z,12.85
2023-03-27T01:45:03.317Z,13.18
2023-03-27T01:47:51.818Z,14.27
2023-03-27T01:50:46.499Z,13.38
2023-03-27T01:53:34.380Z,14.48
2023-03-27T01:56:32.442Z,15.57
2023-03-27T01:59:18.986Z,15.35
2023-03-27T02:01:59.119Z,13.32
2023-03-27T02:04:44.775Z,11.27
2023-03-27T02:07:20.113Z,11.57
2023-03-27T02:09:57.658Z,9.85
2023-03-27T02:12:36.737Z,12.13
2023-03-27T02:15:23.911Z,14.68
2023-03-27T02:18:08.150Z,14.15
2023-03-27T02:20:39.938Z,12.85
2023-03-27T02:23:08.467Z,10.75
2023-03-27T02:25:42.969Z,11.85
2023-03-27T02:28:19.693Z,10.20
2023-03-27T02:31:32.401Z,10.20
2023-03-27T02:34:29.187Z,9.48
2023-03-27T02:37:34.154Z,10.60
2023-03-27T02:40:39.907Z,12.70
2023-03-27T02:43:23.428Z,12.13
2023-03-27T02:46:09.670Z,15.90
2023-03-27T02:48:49.606Z,15.70
2023-03-27T02:51:34.778Z,19.50
2023-03-27T02:54:12.621Z,18.65
2023-03-27T02:56:51.923Z,17.27
2023-03-27T02:59:35.707Z,17.83
2023-03-27T03:02:13.576Z,17.13
2023-03-27T03:04:57.174Z,11.82
2023-03-27T03:07:26.701Z,11.95
2023-03-27T03:09:54.617Z,13.70
2023-03-27T03:12:23.207Z,13.93
2023-03-27T03:14:50.916Z,15.15
2023-03-27T03:17:19.097Z,16.40
2023-03-27T03:19:46.453Z,12.55
2023-03-27T03:22:14.022Z,11.18
2023-03-27T03:24:44.355Z,17.77
2023-03-27T03:27:14.381Z,14.50
2023-03-27T03:29:41.856Z,12.60
2023-03-27T03:32:09.373Z,13.00
2023-03-27T03:34:36.654Z,11.75
2023-03-27T03:37:04.648Z,12.80
2023-03-27T03:39:31.907Z,12.20
2023-03-27T03:41:59.442Z,12.23
2023-03-27T03:44:26.700Z,11.18
2023-03-27T03:46:54.492Z,12.77
2023-03-27T03:49:22.047Z,11.90
2023-03-27T03:52:04.520Z,10.93
2023-03-27T03:54:33.085Z,11.95
2023-03-27T03:57:00.795Z,10.63
2023-03-27T03:59:28.421Z,12.05
2023-03-27T04:01:56.012Z,11.93
2023-03-27T04:04:23.328Z,17.67
2023-03-27T04:06:51.232Z,14.30
2023-03-27T04:09:18.462Z,14.10
2023-03-27T04:11:47.094Z,12.20
2023-03-27T04:14:14.392Z,9.88
2023-03-27T04:16:41.913Z,8.93
2023-03-27T04:19:09.156Z,10.95
2023-03-27T04:21:37.613Z,11.45
2023-03-27T04:24:05.158Z,10.40
2023-03-27T04:26:33.066Z,11.63
2023-03-27T04:29:00.270Z,11.00
2023-03-27T04:31:30.369Z,10.15
2023-03-27T04:33:57.710Z,13.07
2023-03-27T04:36:26.202Z,11.48
2023-03-27T04:38:54.364Z,11.18
2023-03-27T04:41:21.880Z,10.10
2023-03-27T04:43:49.186Z,9.88
2023-03-27T04:46:16.773Z,8.75
2023-03-27T04:48:44.627Z,8.98
2023-03-27T04:51:12.209Z,10.65
2023-03-27T04:53:43.073Z,10.65
2023-03-27T04:56:11.198Z,9.70
2023-03-27T04:58:41.141Z,9.27
2023-03-27T05:01:08.665Z,9.38
2023-03-27T05:03:35.975Z,9.55
2023-03-27T05:06:04.861Z,9.57
2023-03-27T05:08:32.758Z,9.90
2023-03-27T05:11:00.465Z,8.20
2023-03-27T05:13:28.830Z,9.20
2023-03-27T05:15:59.358Z,8.10
2023-03-27T05:18:27.657Z,9.05
2023-03-27T05:20:55.777Z,10.38
2023-03-27T05:23:23.422Z,11.20
2023-03-27T05:26:00.182Z,12.18
2023-03-27T05:28:29.441Z,10.50
2023-03-27T05:30:58.148Z,11.85
2023-03-27T05:33:25.936Z,12.73
2023-03-27T05:35:53.768Z,12.23
2023-03-27T05:38:22.790Z,13.80
2023-03-27T05:40:52.293Z,13.32
2023-03-27T05:43:19.630Z,14.48
2023-03-27T05:45:47.166Z,13.63
2023-03-27T05:48:14.514Z,13.40
2023-03-27T05:50:42.381Z,12.88
2023-03-27T05:53:11.301Z,13.15
2023-03-27T05:55:39.733Z,11.30
2023-03-27T05:58:09.890Z,12.57
2023-03-27T06:00:39.619Z,13.52
2023-03-27T06:03:07.199Z,12.35
2023-03-27T06:05:34.879Z,12.60
2023-03-27T06:08:02.548Z,12.88
2023-03-27T06:10:31.053Z,11.55
2023-03-27T06:13:01.518Z,12.50
2023-03-27T06:15:29.797Z,12.10
2023-03-27T06:17:57.461Z,11.85
2023-03-27T06:20:25.568Z,9.75
2023-03-27T06:22:56.464Z,11.07
2023-03-27T06:25:26.058Z,10.15
2023-03-27T06:27:54.320Z,11.90
2023-03-27T06:30:24.911Z,13.43
2023-03-27T06:32:58.714Z,13.70
2023-03-27T06:35:29.823Z,16.92
2023-03-27T06:37:59.263Z,18.42
2023-03-27T06:40:29.305Z,16.08
2023-03-27T06:43:09.024Z,15.38
2023-03-27T06:45:46.276Z,13.85
2023-03-27T06:48:21.475Z,13.93
2023-03-27T06:50:53.668Z,13.82
2023-03-27T06:55:52.127Z,13.07
2023-03-27T06:58:19.754Z,12.80
2023-03-27T07:00:49.811Z,13.40
2023-03-27T07:03:18.627Z,11.00
2023-03-27T07:05:46.397Z,11.80
2023-03-27T07:10:56.336Z,11.45
2023-03-27T07:13:27.748Z,10.40
2023-03-27T07:15:55.459Z,10.90
2023-03-27T07:18:23.015Z,11.60
2023-03-27T07:20:51.004Z,12.52
2023-03-27T07:23:18.281Z,11.93
2023-03-27T07:25:45.916Z,11.38
2023-03-27T07:28:16.816Z,13.50
2023-03-27T07:30:44.518Z,14.00
2023-03-27T07:33:12.717Z,12.48
2023-03-27T07:35:46.090Z,13.57
2023-03-27T07:38:14.396Z,13.10
2023-03-27T07:40:44.581Z,14.43
2023-03-27T07:43:12.411Z,15.15
2023-03-27T07:45:41.714Z,15.70
2023-03-27T07:48:19.098Z,16.92
2023-03-27T07:50:47.878Z,16.33
2023-03-27T07:53:34.073Z,17.27
2023-03-27T07:56:02.532Z,17.35
2023-03-27T07:58:29.871Z,16.55
2023-03-27T08:01:02.463Z,16.15
2023-03-27T08:03:31.344Z,16.25
2023-03-27T08:06:01.076Z,17.48
2023-03-27T08:08:29.473Z,15.88
2023-03-27T08:10:59.965Z,15.45
2023-03-27T08:13:27.902Z,17.50
2023-03-27T08:16:08.936Z,18.38
2023-03-27T08:18:39.593Z,16.00
2023-03-27T08:21:09.426Z,17.13
2023-03-27T08:23:38.785Z,17.98
2023-03-27T08:26:07.053Z,18.08
2023-03-27T08:28:37.054Z,18.52
2023-03-27T08:31:12.759Z,18.27
2023-03-27T08:33:44.508Z,19.33
2023-03-27T08:36:14.411Z,19.98
2023-03-27T08:38:43.345Z,20.83
2023-03-27T08:41:39.091Z,21.20
2023-03-27T08:44:20.444Z,23.17
2023-03-27T08:47:14.063Z,23.25
2023-03-27T08:50:05.915Z,21.23
2023-03-27T08:52:34.427Z,22.88
2023-03-27T08:55:19.240Z,25.30
2023-03-27T08:57:53.076Z,29.88
2023-03-27T09:00:29.596Z,30.42
2023-03-27T09:03:32.908Z,20.35
2023-03-27T09:06:27.821Z,17.92
2023-03-27T09:10:00.446Z,17.83
2023-03-27T09:13:00.936Z,13.60
2023-03-27T09:15:34.741Z,11.52
2023-03-27T09:18:28.000Z,11.73
2023-03-27T09:21:16.295Z,10.25
2023-03-27T09:23:46.866Z,9.55
2023-03-27T09:26:23.710Z,8.63
2023-03-27T09:29:00.633Z,7.88
2023-03-27T09:32:01.943Z,8.43
2023-03-27T09:34:33.462Z,10.32
2023-03-27T09:37:01.648Z,12.18
2023-03-27T09:39:35.301Z,12.15
2023-03-27T09:42:19.331Z,11.38
2023-03-27T09:44:56.111Z,10.75
2023-03-27T09:48:02.209Z,11.50
2023-03-27T09:50:47.278Z,11.48
2023-03-27T09:53:21.705Z,10.82
2023-03-27T09:56:05.548Z,12.65
2023-03-27T09:58:41.664Z,11.55
2023-03-27T10:01:29.085Z,11.23
2023-03-27T10:03:59.674Z,12.07
2023-03-27T10:06:39.690Z,11.90
2023-03-27T10:09:34.524Z,13.23
2023-03-27T10:12:19.893Z,11.27
2023-03-27T10:14:52.788Z,11.82
2023-03-27T10:17:37.481Z,14.00
2023-03-27T10:20:18.808Z,12.68
2023-03-27T10:23:09.533Z,11.57
2023-03-27T10:25:40.178Z,11.00
2023-03-27T10:28:22.553Z,11.63
2023-03-27T10:31:05.053Z,10.52
2023-03-27T10:33:41.421Z,8.80
2023-03-27T10:36:11.936Z,7.90
2023-03-27T10:38:41.950Z,8.23
2023-03-27T10:41:28.840Z,7.47
2023-03-27T10:43:59.284Z,8.07
2023-03-27T10:46:30.639Z,7.85
2023-03-27T10:49:40.455Z,6.40
2023-03-27T10:52:13.739Z,6.68
2023-03-27T10:55:23.024Z,6.65
2023-03-27T10:58:00.302Z,6.63
2023-03-27T11:00:44.795Z,6.65
2023-03-27T11:03:43.893Z,6.40
2023-03-27T11:06:43.965Z,6.18
2023-03-27T11:09:26.479Z,5.88
2023-03-27T11:12:04.399Z,6.72
2023-03-27T11:14:50.911Z,7.25
2023-03-27T11:17:29.215Z,6.68
2023-03-27T11:20:07.535Z,6.00
2023-03-27T11:22:57.694Z,6.75
2023-03-27T11:25:48.285Z,6.60
2023-03-27T11:28:35.252Z,6.78
2023-03-27T11:31:34.333Z,6.13
2023-03-27T11:34:29.025Z,5.78
2023-03-27T11:37:12.970Z,5.80
2023-03-27T11:39:53.217Z,4.38
2023-03-27T11:42:29.536Z,4.18
2023-03-27T11:44:57.509Z,4.18
2023-03-27T11:47:31.030Z,4.22
2023-03-27T11:50:43.421Z,3.25
2023-03-27T11:53:38.390Z,3.95
2023-03-27T11:56:15.618Z,3.70
2023-03-27T11:59:11.103Z,4.40
2023-03-27T12:01:58.315Z,3.65
2023-03-27T12:04:50.664Z,4.00
2023-03-27T12:07:36.473Z,4.72
2023-03-27T12:10:33.668Z,4.85
2023-03-27T12:13:41.933Z,4.60
2023-03-27T12:16:28.265Z,3.83
2023-03-27T12:19:27.734Z,4.45
2023-03-27T12:22:23.941Z,3.35
2023-03-27T12:25:00.491Z,3.30
2023-03-27T12:28:22.912Z,3.97
2023-03-27T12:31:33.717Z,4.57
2023-03-27T12:35:03.732Z,4.38
2023-03-27T12:38:06.359Z,4.20
2023-03-27T12:40:49.492Z,3.90
2023-03-27T12:43:39.990Z,4.03
2023-03-27T12:46:26.588Z,3.90
2023-03-27T12:49:47.645Z,3.50
2023-03-27T12:52:18.829Z,3.40
2023-03-27T12:55:07.396Z,3.40
2023-03-27T12:57:44.454Z,3.53
2023-03-27T13:00:28.057Z,3.47
2023-03-27T13:03:53.687Z,4.30
2023-03-27T13:06:49.334Z,3.75
2023-03-27T13:09:38.629Z,5.07
2023-03-27T13:12:40.637Z,4.40
2023-03-27T13:15:32.474Z,4.68
2023-03-27T13:18:05.793Z,4.47
2023-03-27T13:21:05.422Z,3.90
2023-03-27T13:24:24.315Z,4.53
2023-03-27T13:27:52.522Z,3.92
2023-03-27T13:31:00.037Z,3.53
2023-03-27T13:33:30.663Z,5.38
2023-03-27T13:35:58.339Z,4.45
2023-03-27T13:39:13.943Z,4.60
2023-03-27T13:41:47.237Z,4.00
2023-03-27T13:44:26.557Z,3.85
2023-03-27T13:47:34.686Z,3.13
2023-03-27T13:50:51.737Z,2.92
2023-03-27T13:54:23.927Z,3.30
2023-03-27T13:57:42.235Z,2.65
2023-03-27T14:00:50.942Z,3.17
2023-03-27T14:03:41.981Z,2.90
2023-03-27T14:06:52.502Z,2.75
2023-03-27T14:10:35.936Z,3.10
2023-03-27T14:13:33.072Z,3.08
2023-03-27T14:16:05.946Z,3.13
2023-03-27T14:18:55.940Z,3.15
2023-03-27T14:21:37.777Z,2.70
2023-03-27T14:24:28.754Z,2.72
2023-03-27T14:26:57.833Z,2.90
2023-03-27T14:29:25.211Z,3.70
2023-03-27T14:31:52.926Z,3.03
2023-03-27T14:34:25.038Z,3.47
2023-03-27T14:36:52.578Z,3.00
2023-03-27T14:39:24.052Z,3.15
2023-03-27T14:42:03.551Z,4.15
2023-03-27T14:44:32.939Z,3.28
2023-03-27T14:47:13.117Z,3.20
2023-03-27T14:49:51.501Z,2.97
2023-03-27T14:52:30.308Z,2.42
2023-03-27T14:54:59.535Z,2.80
2023-03-27T14:57:28.100Z,2.88
2023-03-27T14:59:56.809Z,2.72
2023-03-27T15:02:35.299Z,3.55
2023-03-27T15:05:17.360Z,3.25
2023-03-27T15:07:49.064Z,2.90
2023-03-27T15:10:24.499Z,3.20
2023-03-27T15:12:54.621Z,2.78
2023-03-27T15:15:42.719Z,3.78
2023-03-27T15:18:34.043Z,3.47
2023-03-27T15:21:20.072Z,2.25
2023-03-27T15:24:05.764Z,3.00
2023-03-27T15:26:35.591Z,2.70
2023-03-27T15:29:21.626Z,2.90
2023-03-27T15:31:52.084Z,3.25
2023-03-27T15:34:37.558Z,3.45
2023-03-27T15:37:13.163Z,3.80
2023-03-27T15:40:01.770Z,2.90
2023-03-27T15:42:53.827Z,3.13
2023-03-27T15:45:34.320Z,3.10
2023-03-27T15:48:35.446Z,2.97
2023-03-27T15:51:14.033Z,2.67
2023-03-27T15:53:45.226Z,3.42
2023-03-27T15:56:42.706Z,2.67
2023-03-27T15:59:15.122Z,2.53
2023-03-27T16:01:52.323Z,2.80
2023-03-27T16:04:53.489Z,2.80
2023-03-27T16:07:29.445Z,3.05
2023-03-27T16:10:05.305Z,3.50
2023-03-27T16:12:43.387Z,6.30
2023-03-27T16:15:37.313Z,6.18
2023-03-27T16:18:22.049Z,6.10
2023-03-27T16:20:49.593Z,11.30
2023-03-27T16:23:17.570Z,7.50
2023-03-27T16:25:44.988Z,5.50
2023-03-27T16:28:14.946Z,3.80
2023-03-27T16:30:42.482Z,4.97
2023-03-27T16:33:21.042Z,3.50
2023-03-27T16:35:58.434Z,2.95
2023-03-27T16:38:26.499Z,3.25
2023-03-27T16:40:53.757Z,3.88
2023-03-27T16:43:21.357Z,4.03
2023-03-27T16:45:48.975Z,3.67
2023-03-27T16:48:16.636Z,3.30
2023-03-27T16:50:43.945Z,3.80
2023-03-27T16:53:11.710Z,4.10
2023-03-27T16:55:39.105Z,4.43
2023-03-27T16:58:06.776Z,3.17
2023-03-27T17:00:34.102Z,4.07
2023-03-27T17:03:01.860Z,3.60
2023-03-27T17:05:34.084Z,3.40
2023-03-27T17:08:05.365Z,3.45
2023-03-27T17:10:34.076Z,3.90
2023-03-27T17:13:01.680Z,2.95
2023-03-27T17:15:28.991Z,3.45
2023-03-27T17:17:56.624Z,3.72
2023-03-27T17:20:23.936Z,4.03
2023-03-27T17:22:51.554Z,4.13
2023-03-27T17:25:19.050Z,4.03
2023-03-27T17:27:46.716Z,4.63
2023-03-27T17:30:16.169Z,4.95
2023-03-27T17:32:49.218Z,5.95
2023-03-27T17:35:18.373Z,6.35
2023-03-27T17:37:46.593Z,6.30
2023-03-27T17:40:14.458Z,6.20
2023-03-27T17:42:42.194Z,6.85
2023-03-27T17:45:10.382Z,6.45
2023-03-27T17:47:38.064Z,6.63
2023-03-27T17:50:06.962Z,6.45
2023-03-27T17:52:34.829Z,6.28
2023-03-27T17:55:02.263Z,5.25
2023-03-27T17:57:30.935Z,5.07
2023-03-27T17:59:58.358Z,6.07
2023-03-27T18:02:26.170Z,5.78
2023-03-27T18:04:53.619Z,5.70
2023-03-27T18:07:22.878Z,7.15
2023-03-27T18:09:50.414Z,4.90
2023-03-27T18:12:18.407Z,5.80
2023-03-27T18:14:45.784Z,5.78
2023-03-27T18:17:15.852Z,6.47
2023-03-27T18:19:43.197Z,9.80
2023-03-27T18:22:10.772Z,9.15
2023-03-27T18:24:38.041Z,7.85
2023-03-27T18:27:05.690Z,4.82
2023-03-27T18:29:33.938Z,4.78
2023-03-27T18:32:01.854Z,5.70
2023-03-27T18:34:29.186Z,6.43
2023-03-27T18:36:56.984Z,6.03
2023-03-27T18:39:24.422Z,6.03
2023-03-27T18:41:53.389Z,6.35
2023-03-27T18:44:21.641Z,7.25
2023-03-27T18:46:49.232Z,7.80
2023-03-27T18:49:24.281Z,7.60
2023-03-27T18:51:53.155Z,9.10
2023-03-27T18:54:20.470Z,9.35
2023-03-27T18:56:48.854Z,10.27
2023-03-27T18:59:16.222Z,12.50
2023-03-27T19:01:44.124Z,14.57
2023-03-27T19:04:13.596Z,14.20
2023-03-27T19:06:42.768Z,13.15
2023-03-27T19:09:10.204Z,11.18
2023-03-27T19:11:38.415Z,12.18
2023-03-27T19:14:05.788Z,12.55
2023-03-27T19:16:33.565Z,11.40
2023-03-27T19:19:01.189Z,12.30
2023-03-27T19:21:28.775Z,12.23
2023-03-27T19:23:56.119Z,13.00
2023-03-27T19:26:23.685Z,13.00
2023-03-27T19:28:51.033Z,11.65
2023-03-27T19:31:18.784Z,13.50
2023-03-27T19:33:46.259Z,12.65
2023-03-27T19:36:14.051Z,13.55
2023-03-27T19:38:41.618Z,13.65
2023-03-27T19:41:10.629Z,12.10
2023-03-27T19:43:38.135Z,12.40
2023-03-27T19:46:15.623Z,13.13
2023-03-27T19:48:47.562Z,11.93
2023-03-27T19:51:15.516Z,12.02
2023-03-27T19:53:43.438Z,11.82
2023-03-27T19:56:11.650Z,12.35
2023-03-27T19:58:38.993Z,11.85
2023-03-27T20:01:07.193Z,13.05
2023-03-27T20:03:38.388Z,14.23
2023-03-27T20:06:12.956Z,14.05
2023-03-27T20:08:40.729Z,13.30
2023-03-27T20:11:08.599Z,15.68
2023-03-27T20:13:49.060Z,17.40
2023-03-27T20:16:32.333Z,19.60
2023-03-27T20:19:05.686Z,18.47
2023-03-27T20:21:39.808Z,14.55
2023-03-27T20:24:10.432Z,13.60
2023-03-27T20:26:41.136Z,14.25
2023-03-27T20:29:12.308Z,13.48
2023-03-27T20:31:46.712Z,12.73
2023-03-27T20:34:14.649Z,11.43
2023-03-27T20:36:43.433Z,11.43
2023-03-27T20:39:10.743Z,13.25
2023-03-27T20:41:38.961Z,13.32
2023-03-27T20:44:15.332Z,11.63
2023-03-27T20:46:51.881Z,11.93
2023-03-27T20:51:59.853Z,12.35
2023-03-27T20:54:27.559Z,11.05
2023-03-27T20:56:55.511Z,12.27
2023-03-27T20:59:23.095Z,11.97
2023-03-27T21:01:50.686Z,10.10
2023-03-27T21:04:18.038Z,12.30
2023-03-27T21:06:45.617Z,9.98
2023-03-27T21:09:13.997Z,9.80
2023-03-27T21:11:41.966Z,9.43
2023-03-27T21:14:09.251Z,9.20
2023-03-27T21:16:37.805Z,8.23
2023-03-27T21:19:05.391Z,8.03
2023-03-27T21:21:33.284Z,8.20
2023-03-27T21:24:00.664Z,8.60
2023-03-27T21:26:28.324Z,8.33
2023-03-27T21:28:55.859Z,8.75
2023-03-27T21:31:23.524Z,8.82
2023-03-27T21:33:50.827Z,8.47
2023-03-27T21:36:18.504Z,7.73
2023-03-27T21:38:45.884Z,6.70
2023-03-27T21:41:16.663Z,7.57
2023-03-27T21:43:44.636Z,6.30
2023-03-27T21:46:12.642Z,8.02
2023-03-27T21:48:40.831Z,7.60
2023-03-27T21:51:08.932Z,6.67
2023-03-27T21:53:36.798Z,6.33
2023-03-27T21:56:05.581Z,5.28
2023-03-27T21:58:32.996Z,5.22
2023-03-27T22:01:01.313Z,6.20
2023-03-27T22:03:29.582Z,7.33
2023-03-27T22:06:11.536Z,8.40
2023-03-27T22:08:42.457Z,10.05
2023-03-27T22:11:12.552Z,14.03
2023-03-27T22:13:41.893Z,14.03
2023-03-27T22:16:13.311Z,13.83
2023-03-27T22:18:42.066Z,13.27
2023-03-27T22:21:17.257Z,15.67
2023-03-27T22:23:45.408Z,18.43
2023-03-27T22:26:13.200Z,19.87
2023-03-27T22:28:40.498Z,22.60
2023-03-27T22:31:08.251Z,16.97
2023-03-27T22:33:37.275Z,15.98
2023-03-27T22:36:06.345Z,16.83
2023-03-27T22:38:34.004Z,13.25
2023-03-27T22:41:01.636Z,12.00
2023-03-27T22:43:29.970Z,12.77
2023-03-27T22:46:07.255Z,14.23
2023-03-27T22:48:35.489Z,14.33
2023-03-27T22:51:04.033Z,15.35
2023-03-27T22:53:32.791Z,15.80
2023-03-27T22:56:03.063Z,16.23
2023-03-27T22:58:31.538Z,16.83
2023-03-27T23:00:59.517Z,18.87
2023-03-27T23:03:28.006Z,16.87
2023-03-27T23:05:56.008Z,15.53
2023-03-27T23:08:29.426Z,14.53
2023-03-27T23:11:03.515Z,13.57
2023-03-27T23:13:34.169Z,14.27
2023-03-27T23:16:02.134Z,14.00
2023-03-27T23:18:29.701Z,13.10
2023-03-27T23:21:06.083Z,12.40
2023-03-27T23:23:36.265Z,14.10
2023-03-27T23:26:06.314Z,12.73
2023-03-27T23:28:38.730Z,11.80
2023-03-27T23:31:16.588Z,12.77
2023-03-27T23:33:47.889Z,12.97
2023-03-27T23:36:22.714Z,13.17
2023-03-27T23:38:51.646Z,12.07
2023-03-27T23:41:20.302Z,10.97
2023-03-27T23:43:48.264Z,10.73
2023-03-27T23:46:16.277Z,11.33
2023-03-27T23:48:44.998Z,10.70
2023-03-27T23:51:15.692Z,10.70
2023-03-27T23:53:43.458Z,10.57
2023-03-27T23:56:11.893Z,10.63
2023-03-27T23:58:39.655Z,10.70
